createdAt,value
2016-08-06T00:01:24.996Z,1010.16
2016-08-06T00:16:20.414Z,1010.25
2016-08-06T00:31:20.426Z,1010.39
2016-08-06T00:46:33.410Z,1010.34
2016-08-06T01:01:31.805Z,1010.29
2016-08-06T01:16:20.453Z,1010.38
2016-08-06T01:31:20.466Z,1010.37
2016-08-06T01:46:20.473Z,1010.18
2016-08-06T02:01:20.528Z,1010.36
2016-08-06T02:16:31.296Z,1010.33
2016-08-06T02:31:22.486Z,1010.5
2016-08-06T02:46:25.528Z,1010.59
2016-08-06T03:01:20.540Z,1010.7
2016-08-06T03:16:25.564Z,1010.94
2016-08-06T03:31:20.495Z,1010.82
2016-08-06T03:46:20.504Z,1010.84
2016-08-06T04:01:25.501Z,1010.71
2016-08-06T04:16:25.569Z,1010.93
2016-08-06T04:31:21.365Z,1011.27
2016-08-06T06:16:20.638Z,1011.51
2016-08-06T06:31:20.594Z,1011.66
2016-08-06T07:01:22.614Z,1011.97
2016-08-06T07:31:27.002Z,1011.96
2016-08-06T07:46:35.937Z,1012.08
2016-08-06T08:01:26.872Z,1011.87
2016-08-06T08:16:26.876Z,1012.01
2016-08-06T08:31:29.525Z,1011.98
2016-08-06T08:46:25.329Z,1011.92
2016-08-06T09:01:25.293Z,1011.89
2016-08-06T09:16:26.916Z,1011.83
2016-08-06T09:31:20.693Z,1011.96
2016-08-06T09:46:22.769Z,1011.64
2016-08-06T10:01:26.928Z,1011.72
2016-08-06T10:16:25.657Z,1011.87
2016-08-06T10:31:26.844Z,1011.94
2016-08-06T10:46:25.397Z,1011.76
2016-08-06T11:01:25.367Z,1011.81
2016-08-06T11:16:25.389Z,1011.91
2016-08-06T11:31:29.090Z,1012.11
2016-08-06T11:46:25.871Z,1012.2
2016-08-06T12:16:33.847Z,1012.6
2016-08-06T12:31:31.125Z,1012.7
2016-08-06T12:46:20.814Z,1012.84
2016-08-06T13:01:27.286Z,1012.55
2016-08-06T13:16:22.825Z,1012.36
2016-08-06T13:31:20.846Z,1012.55
2016-08-06T13:46:33.480Z,1012.76
2016-08-06T14:01:34.197Z,1013.5
2016-08-06T14:16:27.069Z,1013.65
2016-08-06T14:31:20.856Z,1014.01
2016-08-06T14:46:20.871Z,1013.81
2016-08-06T15:01:20.882Z,1013.45
2016-08-06T15:16:21.002Z,1013.45
2016-08-06T15:31:20.891Z,1013.51
2016-08-06T15:46:20.935Z,1013.43
2016-08-06T16:01:20.923Z,1013.68
2016-08-06T16:16:20.978Z,1013.78
2016-08-06T16:31:20.943Z,1013.68
2016-08-06T16:46:20.946Z,1013.85
2016-08-06T17:01:20.956Z,1013.61
2016-08-06T17:16:23.030Z,1013.61
2016-08-06T17:31:32.127Z,1013.47
2016-08-06T17:46:29.968Z,1013.65
2016-08-06T18:01:25.621Z,1013.63
2016-08-06T18:16:39.707Z,1013.76
2016-08-06T18:31:27.330Z,1013.83
2016-08-06T18:46:23.017Z,1013.9
2016-08-06T19:01:21.020Z,1014.1
2016-08-06T19:16:25.627Z,1014.15
2016-08-06T19:31:25.661Z,1014.29
2016-08-06T19:46:37.364Z,1014.57
2016-08-06T20:01:23.030Z,1014.62
2016-08-06T20:16:21.039Z,1014.75
2016-08-06T20:31:21.035Z,1014.75
2016-08-06T20:46:25.865Z,1014.8
2016-08-06T21:01:21.059Z,1014.9
2016-08-06T21:16:21.064Z,1014.84
2016-08-06T21:31:21.073Z,1014.85
2016-08-06T21:46:21.079Z,1015.01
2016-08-06T22:01:35.568Z,1015.04
2016-08-06T22:16:21.095Z,1015.05
2016-08-06T22:31:21.104Z,1014.99
2016-08-06T22:46:21.118Z,1015.04
2016-08-06T23:01:21.133Z,1015.25
2016-08-06T23:16:21.177Z,1015.13
2016-08-06T23:31:25.774Z,1015.16
2016-08-06T23:46:21.159Z,1015.33
